sensor_id;sensor_type;location;lat;lon;timestamp;P1;durP1;ratioP1;P2;durP2;ratioP2
20036;SDS011;10179;42.640;23.312;2022-12-07T00:02:04;59.70;;;24.55;;
20036;SDS011;10179;42.640;23.312;2022-12-07T00:04:29;59.20;;;24.90;;
20036;SDS011;10179;42.640;23.312;2022-12-07T00:06:55;58.03;;;23.73;;
20036;SDS011;10179;42.640;23.312;2022-12-07T00:09:20;62.15;;;25.92;;
20036;SDS011;10179;42.640;23.312;2022-12-07T00:11:48;51.50;;;23.92;;
20036;SDS011;10179;42.640;23.312;2022-12-07T00:14:15;64.72;;;26.25;;
20036;SDS011;10179;42.640;23.312;2022-12-07T00:16:42;60.65;;;26.42;;
20036;SDS011;10179;42.640;23.312;2022-12-07T00:19:08;62.00;;;27.67;;
20036;SDS011;10179;42.640;23.312;2022-12-07T00:21:35;59.00;;;26.48;;
20036;SDS011;10179;42.640;23.312;2022-12-07T00:24:02;59.30;;;24.88;;
20036;SDS011;10179;42.640;23.312;2022-12-07T00:26:32;61.88;;;27.13;;
20036;SDS011;10179;42.640;23.312;2022-12-07T00:29:01;55.75;;;25.63;;
20036;SDS011;10179;42.640;23.312;2022-12-07T00:31:29;54.58;;;24.90;;
20036;SDS011;10179;42.640;23.312;2022-12-07T00:33:58;59.15;;;24.77;;
20036;SDS011;10179;42.640;23.312;2022-12-07T00:36:24;67.63;;;26.88;;
20036;SDS011;10179;42.640;23.312;2022-12-07T00:38:50;73.30;;;26.20;;
20036;SDS011;10179;42.640;23.312;2022-12-07T00:41:17;59.80;;;26.15;;
20036;SDS011;10179;42.640;23.312;2022-12-07T00:43:47;56.53;;;26.55;;
20036;SDS011;10179;42.640;23.312;2022-12-07T00:46:14;57.33;;;24.45;;
20036;SDS011;10179;42.640;23.312;2022-12-07T00:48:40;61.50;;;26.42;;
20036;SDS011;10179;42.640;23.312;2022-12-07T00:51:07;60.83;;;26.65;;
20036;SDS011;10179;42.640;23.312;2022-12-07T00:53:36;62.15;;;26.45;;
20036;SDS011;10179;42.640;23.312;2022-12-07T00:56:06;62.30;;;28.05;;
20036;SDS011;10179;42.640;23.312;2022-12-07T00:58:32;66.00;;;28.42;;
20036;SDS011;10179;42.640;23.312;2022-12-07T01:00:59;60.88;;;27.95;;
20036;SDS011;10179;42.640;23.312;2022-12-07T01:03:26;59.35;;;28.75;;
20036;SDS011;10179;42.640;23.312;2022-12-07T01:05:54;70.20;;;30.27;;
20036;SDS011;10179;42.640;23.312;2022-12-07T01:08:20;60.08;;;28.80;;
20036;SDS011;10179;42.640;23.312;2022-12-07T01:10:46;61.60;;;29.25;;
20036;SDS011;10179;42.640;23.312;2022-12-07T01:13:12;63.42;;;30.27;;
20036;SDS011;10179;42.640;23.312;2022-12-07T01:15:41;61.53;;;27.13;;
20036;SDS011;10179;42.640;23.312;2022-12-07T01:18:08;56.97;;;24.42;;
20036;SDS011;10179;42.640;23.312;2022-12-07T01:20:33;59.15;;;24.45;;
20036;SDS011;10179;42.640;23.312;2022-12-07T01:22:59;46.50;;;22.67;;
20036;SDS011;10179;42.640;23.312;2022-12-07T01:25:24;51.17;;;23.30;;
20036;SDS011;10179;42.640;23.312;2022-12-07T01:27:50;49.28;;;22.27;;
20036;SDS011;10179;42.640;23.312;2022-12-07T01:30:15;54.10;;;22.77;;
20036;SDS011;10179;42.640;23.312;2022-12-07T01:32:41;52.28;;;22.75;;
20036;SDS011;10179;42.640;23.312;2022-12-07T01:35:07;44.58;;;22.15;;
20036;SDS011;10179;42.640;23.312;2022-12-07T01:37:36;48.65;;;21.58;;
20036;SDS011;10179;42.640;23.312;2022-12-07T01:40:03;46.13;;;20.98;;
20036;SDS011;10179;42.640;23.312;2022-12-07T01:42:29;47.85;;;20.80;;
20036;SDS011;10179;42.640;23.312;2022-12-07T01:47:43;51.75;;;24.80;;
20036;SDS011;10179;42.640;23.312;2022-12-07T01:50:17;47.42;;;23.38;;
20036;SDS011;10179;42.640;23.312;2022-12-07T01:52:43;45.08;;;21.73;;
20036;SDS011;10179;42.640;23.312;2022-12-07T01:55:12;52.60;;;22.58;;
20036;SDS011;10179;42.640;23.312;2022-12-07T01:57:41;56.22;;;23.67;;
20036;SDS011;10179;42.640;23.312;2022-12-07T02:00:12;45.50;;;21.15;;
20036;SDS011;10179;42.640;23.312;2022-12-07T02:02:42;42.90;;;21.08;;
20036;SDS011;10179;42.640;23.312;2022-12-07T02:05:12;49.13;;;22.50;;
20036;SDS011;10179;42.640;23.312;2022-12-07T02:07:38;51.75;;;23.20;;
20036;SDS011;10179;42.640;23.312;2022-12-07T02:10:21;48.17;;;22.92;;
20036;SDS011;10179;42.640;23.312;2022-12-07T02:13:13;50.83;;;21.85;;
20036;SDS011;10179;42.640;23.312;2022-12-07T02:15:48;57.40;;;24.45;;
20036;SDS011;10179;42.640;23.312;2022-12-07T02:23:44;56.92;;;22.17;;
20036;SDS011;10179;42.640;23.312;2022-12-07T02:29:28;46.53;;;21.70;;
20036;SDS011;10179;42.640;23.312;2022-12-07T02:32:20;42.83;;;20.88;;
20036;SDS011;10179;42.640;23.312;2022-12-07T02:34:50;46.58;;;20.92;;
20036;SDS011;10179;42.640;23.312;2022-12-07T02:40:20;51.50;;;22.02;;
20036;SDS011;10179;42.640;23.312;2022-12-07T02:42:51;48.63;;;20.50;;
20036;SDS011;10179;42.640;23.312;2022-12-07T02:45:22;42.03;;;21.27;;
20036;SDS011;10179;42.640;23.312;2022-12-07T02:47:51;49.78;;;20.95;;
20036;SDS011;10179;42.640;23.312;2022-12-07T02:50:21;37.72;;;19.85;;
20036;SDS011;10179;42.640;23.312;2022-12-07T02:52:47;45.05;;;20.17;;
20036;SDS011;10179;42.640;23.312;2022-12-07T02:55:12;45.45;;;20.85;;
20036;SDS011;10179;42.640;23.312;2022-12-07T03:00:28;47.20;;;21.95;;
20036;SDS011;10179;42.640;23.312;2022-12-07T03:02:59;46.10;;;21.15;;
20036;SDS011;10179;42.640;23.312;2022-12-07T03:10:40;46.10;;;20.13;;
20036;SDS011;10179;42.640;23.312;2022-12-07T03:16:27;38.53;;;17.88;;
20036;SDS011;10179;42.640;23.312;2022-12-07T03:19:00;39.47;;;19.42;;
20036;SDS011;10179;42.640;23.312;2022-12-07T03:21:32;36.15;;;16.88;;
20036;SDS011;10179;42.640;23.312;2022-12-07T03:24:03;41.17;;;18.95;;
20036;SDS011;10179;42.640;23.312;2022-12-07T03:26:35;38.38;;;18.95;;
20036;SDS011;10179;42.640;23.312;2022-12-07T03:29:24;38.88;;;18.88;;
20036;SDS011;10179;42.640;23.312;2022-12-07T03:32:00;37.33;;;16.80;;
20036;SDS011;10179;42.640;23.312;2022-12-07T03:34:38;36.00;;;16.90;;
20036;SDS011;10179;42.640;23.312;2022-12-07T03:37:16;40.95;;;19.92;;
20036;SDS011;10179;42.640;23.312;2022-12-07T03:42:23;35.85;;;14.93;;
20036;SDS011;10179;42.640;23.312;2022-12-07T03:44:49;35.58;;;18.52;;
20036;SDS011;10179;42.640;23.312;2022-12-07T03:47:32;41.50;;;18.17;;
20036;SDS011;10179;42.640;23.312;2022-12-07T03:53:02;38.22;;;17.80;;
20036;SDS011;10179;42.640;23.312;2022-12-07T03:55:35;43.03;;;18.58;;
20036;SDS011;10179;42.640;23.312;2022-12-07T03:58:06;42.50;;;16.90;;
20036;SDS011;10179;42.640;23.312;2022-12-07T04:00:35;30.10;;;14.90;;
20036;SDS011;10179;42.640;23.312;2022-12-07T04:03:01;34.47;;;16.27;;
20036;SDS011;10179;42.640;23.312;2022-12-07T04:05:26;35.90;;;17.02;;
20036;SDS011;10179;42.640;23.312;2022-12-07T04:07:52;27.45;;;15.23;;
20036;SDS011;10179;42.640;23.312;2022-12-07T04:10:18;37.97;;;17.05;;
20036;SDS011;10179;42.640;23.312;2022-12-07T04:12:43;41.45;;;18.55;;
20036;SDS011;10179;42.640;23.312;2022-12-07T04:15:09;40.08;;;18.08;;
20036;SDS011;10179;42.640;23.312;2022-12-07T04:17:35;39.60;;;18.00;;
20036;SDS011;10179;42.640;23.312;2022-12-07T04:20:01;43.22;;;19.25;;
20036;SDS011;10179;42.640;23.312;2022-12-07T04:22:26;41.75;;;17.95;;
20036;SDS011;10179;42.640;23.312;2022-12-07T04:24:52;40.30;;;19.13;;
20036;SDS011;10179;42.640;23.312;2022-12-07T04:27:17;39.63;;;19.35;;
20036;SDS011;10179;42.640;23.312;2022-12-07T04:29:43;41.55;;;17.98;;
20036;SDS011;10179;42.640;23.312;2022-12-07T04:32:08;38.83;;;17.75;;
20036;SDS011;10179;42.640;23.312;2022-12-07T04:34:33;33.03;;;15.65;;
20036;SDS011;10179;42.640;23.312;2022-12-07T04:36:59;35.80;;;16.45;;
20036;SDS011;10179;42.640;23.312;2022-12-07T04:39:25;37.03;;;17.70;;
20036;SDS011;10179;42.640;23.312;2022-12-07T04:41:55;32.65;;;15.23;;
20036;SDS011;10179;42.640;23.312;2022-12-07T04:44:22;34.67;;;16.25;;
20036;SDS011;10179;42.640;23.312;2022-12-07T04:46:49;36.58;;;16.25;;
20036;SDS011;10179;42.640;23.312;2022-12-07T04:49:15;31.50;;;16.25;;
20036;SDS011;10179;42.640;23.312;2022-12-07T04:51:42;37.58;;;17.15;;
20036;SDS011;10179;42.640;23.312;2022-12-07T04:54:08;34.08;;;15.63;;
20036;SDS011;10179;42.640;23.312;2022-12-07T04:56:33;35.10;;;16.13;;
20036;SDS011;10179;42.640;23.312;2022-12-07T04:59:00;35.25;;;15.95;;
20036;SDS011;10179;42.640;23.312;2022-12-07T05:01:26;39.17;;;17.67;;
20036;SDS011;10179;42.640;23.312;2022-12-07T05:03:52;37.70;;;17.08;;
20036;SDS011;10179;42.640;23.312;2022-12-07T05:06:17;35.88;;;17.60;;
20036;SDS011;10179;42.640;23.312;2022-12-07T05:08:43;34.35;;;16.90;;
20036;SDS011;10179;42.640;23.312;2022-12-07T05:11:09;33.38;;;17.20;;
20036;SDS011;10179;42.640;23.312;2022-12-07T05:13:55;31.45;;;15.57;;
20036;SDS011;10179;42.640;23.312;2022-12-07T05:16:22;33.88;;;15.48;;
20036;SDS011;10179;42.640;23.312;2022-12-07T05:18:47;38.83;;;16.33;;
20036;SDS011;10179;42.640;23.312;2022-12-07T05:21:12;40.33;;;17.65;;
20036;SDS011;10179;42.640;23.312;2022-12-07T05:23:38;37.60;;;17.33;;
20036;SDS011;10179;42.640;23.312;2022-12-07T05:26:03;38.28;;;17.45;;
20036;SDS011;10179;42.640;23.312;2022-12-07T05:28:29;36.63;;;17.38;;
20036;SDS011;10179;42.640;23.312;2022-12-07T05:30:54;45.83;;;19.58;;
20036;SDS011;10179;42.640;23.312;2022-12-07T05:33:19;38.33;;;18.08;;
20036;SDS011;10179;42.640;23.312;2022-12-07T05:35:45;36.92;;;17.77;;
20036;SDS011;10179;42.640;23.312;2022-12-07T05:38:10;39.35;;;16.92;;
20036;SDS011;10179;42.640;23.312;2022-12-07T05:40:36;40.05;;;17.15;;
20036;SDS011;10179;42.640;23.312;2022-12-07T05:43:02;59.90;;;24.08;;
20036;SDS011;10179;42.640;23.312;2022-12-07T05:45:27;51.28;;;21.63;;
20036;SDS011;10179;42.640;23.312;2022-12-07T05:47:52;47.35;;;21.02;;
20036;SDS011;10179;42.640;23.312;2022-12-07T05:50:18;48.55;;;21.90;;
20036;SDS011;10179;42.640;23.312;2022-12-07T05:52:43;44.28;;;20.13;;
20036;SDS011;10179;42.640;23.312;2022-12-07T05:55:10;50.88;;;21.08;;
20036;SDS011;10179;42.640;23.312;2022-12-07T05:57:35;45.17;;;20.58;;
20036;SDS011;10179;42.640;23.312;2022-12-07T06:00:00;51.53;;;20.33;;
20036;SDS011;10179;42.640;23.312;2022-12-07T06:02:26;46.92;;;21.58;;
20036;SDS011;10179;42.640;23.312;2022-12-07T06:04:52;50.13;;;21.35;;
20036;SDS011;10179;42.640;23.312;2022-12-07T06:07:17;47.38;;;20.75;;
20036;SDS011;10179;42.640;23.312;2022-12-07T06:09:43;54.55;;;20.67;;
20036;SDS011;10179;42.640;23.312;2022-12-07T06:12:09;55.33;;;21.23;;
20036;SDS011;10179;42.640;23.312;2022-12-07T06:14:54;46.63;;;20.52;;
20036;SDS011;10179;42.640;23.312;2022-12-07T06:17:20;44.63;;;19.92;;
20036;SDS011;10179;42.640;23.312;2022-12-07T06:19:45;51.10;;;21.30;;
20036;SDS011;10179;42.640;23.312;2022-12-07T06:22:11;42.78;;;20.80;;
20036;SDS011;10179;42.640;23.312;2022-12-07T06:24:37;53.50;;;23.60;;
20036;SDS011;10179;42.640;23.312;2022-12-07T06:27:04;56.25;;;25.48;;
20036;SDS011;10179;42.640;23.312;2022-12-07T06:29:29;49.92;;;24.08;;
20036;SDS011;10179;42.640;23.312;2022-12-07T06:31:55;46.03;;;22.55;;
20036;SDS011;10179;42.640;23.312;2022-12-07T06:34:21;56.17;;;22.52;;
20036;SDS011;10179;42.640;23.312;2022-12-07T06:36:48;53.00;;;23.27;;
20036;SDS011;10179;42.640;23.312;2022-12-07T06:39:17;57.47;;;22.30;;
20036;SDS011;10179;42.640;23.312;2022-12-07T06:41:43;56.55;;;21.17;;
20036;SDS011;10179;42.640;23.312;2022-12-07T06:44:09;59.67;;;23.27;;
20036;SDS011;10179;42.640;23.312;2022-12-07T06:46:35;49.63;;;21.58;;
20036;SDS011;10179;42.640;23.312;2022-12-07T06:49:00;53.67;;;22.20;;
20036;SDS011;10179;42.640;23.312;2022-12-07T06:51:26;51.08;;;21.33;;
20036;SDS011;10179;42.640;23.312;2022-12-07T06:53:52;52.20;;;21.33;;
20036;SDS011;10179;42.640;23.312;2022-12-07T06:56:17;56.75;;;24.25;;
20036;SDS011;10179;42.640;23.312;2022-12-07T06:58:43;49.35;;;22.02;;
20036;SDS011;10179;42.640;23.312;2022-12-07T07:01:09;52.88;;;22.63;;
20036;SDS011;10179;42.640;23.312;2022-12-07T07:03:38;52.75;;;22.75;;
20036;SDS011;10179;42.640;23.312;2022-12-07T07:06:05;58.42;;;23.33;;
20036;SDS011;10179;42.640;23.312;2022-12-07T07:08:32;56.95;;;22.90;;
20036;SDS011;10179;42.640;23.312;2022-12-07T07:10:58;55.03;;;23.67;;
20036;SDS011;10179;42.640;23.312;2022-12-07T07:13:23;50.47;;;22.30;;
20036;SDS011;10179;42.640;23.312;2022-12-07T07:15:49;53.38;;;22.88;;
20036;SDS011;10179;42.640;23.312;2022-12-07T07:18:14;52.10;;;21.75;;
20036;SDS011;10179;42.640;23.312;2022-12-07T07:20:39;51.05;;;22.45;;
20036;SDS011;10179;42.640;23.312;2022-12-07T07:23:05;57.10;;;23.45;;
20036;SDS011;10179;42.640;23.312;2022-12-07T07:25:32;61.13;;;23.80;;
20036;SDS011;10179;42.640;23.312;2022-12-07T07:27:58;62.30;;;24.60;;
20036;SDS011;10179;42.640;23.312;2022-12-07T07:30:23;57.40;;;23.35;;
20036;SDS011;10179;42.640;23.312;2022-12-07T07:32:49;57.80;;;23.45;;
20036;SDS011;10179;42.640;23.312;2022-12-07T07:35:14;52.67;;;24.20;;
20036;SDS011;10179;42.640;23.312;2022-12-07T07:37:41;57.97;;;23.90;;
20036;SDS011;10179;42.640;23.312;2022-12-07T07:40:06;60.47;;;23.48;;
20036;SDS011;10179;42.640;23.312;2022-12-07T07:42:33;63.85;;;25.40;;
20036;SDS011;10179;42.640;23.312;2022-12-07T07:44:58;60.70;;;24.90;;
20036;SDS011;10179;42.640;23.312;2022-12-07T07:47:24;58.83;;;24.27;;
20036;SDS011;10179;42.640;23.312;2022-12-07T07:49:49;59.75;;;26.75;;
20036;SDS011;10179;42.640;23.312;2022-12-07T07:52:14;68.40;;;25.83;;
20036;SDS011;10179;42.640;23.312;2022-12-07T07:54:40;58.25;;;24.75;;
20036;SDS011;10179;42.640;23.312;2022-12-07T07:57:05;54.05;;;23.25;;
20036;SDS011;10179;42.640;23.312;2022-12-07T07:59:30;57.50;;;20.13;;
20036;SDS011;10179;42.640;23.312;2022-12-07T08:01:56;44.00;;;18.90;;
20036;SDS011;10179;42.640;23.312;2022-12-07T08:04:21;37.20;;;16.75;;
20036;SDS011;10179;42.640;23.312;2022-12-07T08:06:47;40.63;;;18.10;;
20036;SDS011;10179;42.640;23.312;2022-12-07T08:09:12;45.75;;;17.20;;
20036;SDS011;10179;42.640;23.312;2022-12-07T08:11:37;43.58;;;17.50;;
20036;SDS011;10179;42.640;23.312;2022-12-07T08:14:03;43.50;;;18.25;;
20036;SDS011;10179;42.640;23.312;2022-12-07T08:16:28;42.75;;;18.70;;
20036;SDS011;10179;42.640;23.312;2022-12-07T08:18:54;41.53;;;18.90;;
20036;SDS011;10179;42.640;23.312;2022-12-07T08:21:19;50.88;;;19.33;;
20036;SDS011;10179;42.640;23.312;2022-12-07T08:23:45;41.83;;;17.55;;
20036;SDS011;10179;42.640;23.312;2022-12-07T08:26:12;46.15;;;17.73;;
20036;SDS011;10179;42.640;23.312;2022-12-07T08:28:39;52.03;;;18.42;;
20036;SDS011;10179;42.640;23.312;2022-12-07T08:31:07;43.17;;;18.90;;
20036;SDS011;10179;42.640;23.312;2022-12-07T08:33:36;50.40;;;20.40;;
20036;SDS011;10179;42.640;23.312;2022-12-07T08:36:05;56.20;;;22.85;;
20036;SDS011;10179;42.640;23.312;2022-12-07T08:38:36;48.17;;;20.17;;
20036;SDS011;10179;42.640;23.312;2022-12-07T08:41:02;50.45;;;19.75;;
20036;SDS011;10179;42.640;23.312;2022-12-07T08:43:28;41.50;;;19.23;;
20036;SDS011;10179;42.640;23.312;2022-12-07T08:46:00;40.72;;;18.85;;
20036;SDS011;10179;42.640;23.312;2022-12-07T08:48:31;37.58;;;18.30;;
20036;SDS011;10179;42.640;23.312;2022-12-07T08:50:58;49.17;;;19.90;;
20036;SDS011;10179;42.640;23.312;2022-12-07T08:53:23;44.95;;;19.48;;
20036;SDS011;10179;42.640;23.312;2022-12-07T08:55:49;37.65;;;17.48;;
20036;SDS011;10179;42.640;23.312;2022-12-07T08:58:15;43.70;;;17.67;;
20036;SDS011;10179;42.640;23.312;2022-12-07T09:00:40;53.65;;;17.50;;
20036;SDS011;10179;42.640;23.312;2022-12-07T09:03:05;45.38;;;17.48;;
20036;SDS011;10179;42.640;23.312;2022-12-07T09:05:32;41.78;;;17.98;;
20036;SDS011;10179;42.640;23.312;2022-12-07T09:07:59;39.85;;;18.15;;
20036;SDS011;10179;42.640;23.312;2022-12-07T09:10:26;46.95;;;18.52;;
20036;SDS011;10179;42.640;23.312;2022-12-07T09:12:52;46.60;;;18.48;;
20036;SDS011;10179;42.640;23.312;2022-12-07T09:15:17;41.58;;;18.30;;
20036;SDS011;10179;42.640;23.312;2022-12-07T09:17:43;46.65;;;18.63;;
20036;SDS011;10179;42.640;23.312;2022-12-07T09:20:08;41.83;;;19.20;;
20036;SDS011;10179;42.640;23.312;2022-12-07T09:22:34;39.28;;;18.58;;
20036;SDS011;10179;42.640;23.312;2022-12-07T09:25:00;43.42;;;18.70;;
20036;SDS011;10179;42.640;23.312;2022-12-07T09:27:26;47.03;;;17.85;;
20036;SDS011;10179;42.640;23.312;2022-12-07T09:29:52;41.25;;;17.55;;
20036;SDS011;10179;42.640;23.312;2022-12-07T09:32:18;40.30;;;17.73;;
20036;SDS011;10179;42.640;23.312;2022-12-07T09:34:43;37.67;;;16.98;;
20036;SDS011;10179;42.640;23.312;2022-12-07T09:37:09;44.60;;;16.73;;
20036;SDS011;10179;42.640;23.312;2022-12-07T09:39:37;41.10;;;17.42;;
20036;SDS011;10179;42.640;23.312;2022-12-07T09:42:03;49.45;;;18.05;;
20036;SDS011;10179;42.640;23.312;2022-12-07T09:44:29;44.90;;;19.00;;
20036;SDS011;10179;42.640;23.312;2022-12-07T09:46:55;49.97;;;19.17;;
20036;SDS011;10179;42.640;23.312;2022-12-07T09:49:22;45.78;;;19.90;;
20036;SDS011;10179;42.640;23.312;2022-12-07T09:52:00;44.85;;;17.90;;
20036;SDS011;10179;42.640;23.312;2022-12-07T09:54:26;43.88;;;19.60;;
20036;SDS011;10179;42.640;23.312;2022-12-07T09:56:53;52.35;;;19.15;;
20036;SDS011;10179;42.640;23.312;2022-12-07T09:59:19;42.65;;;17.27;;
20036;SDS011;10179;42.640;23.312;2022-12-07T10:01:47;51.55;;;18.42;;
20036;SDS011;10179;42.640;23.312;2022-12-07T10:04:16;44.53;;;18.35;;
20036;SDS011;10179;42.640;23.312;2022-12-07T10:06:44;41.58;;;18.20;;
20036;SDS011;10179;42.640;23.312;2022-12-07T10:09:11;49.92;;;19.02;;
20036;SDS011;10179;42.640;23.312;2022-12-07T10:14:27;48.03;;;18.95;;
20036;SDS011;10179;42.640;23.312;2022-12-07T10:16:55;43.88;;;18.38;;
20036;SDS011;10179;42.640;23.312;2022-12-07T10:19:30;40.50;;;17.00;;
20036;SDS011;10179;42.640;23.312;2022-12-07T10:22:02;44.95;;;18.73;;
20036;SDS011;10179;42.640;23.312;2022-12-07T10:24:35;53.38;;;17.75;;
20036;SDS011;10179;42.640;23.312;2022-12-07T10:27:04;45.88;;;17.05;;
20036;SDS011;10179;42.640;23.312;2022-12-07T10:29:42;44.30;;;17.77;;
20036;SDS011;10179;42.640;23.312;2022-12-07T10:34:40;42.53;;;18.52;;
20036;SDS011;10179;42.640;23.312;2022-12-07T10:51:20;44.13;;;21.15;;
20036;SDS011;10179;42.640;23.312;2022-12-07T10:59:40;41.30;;;19.55;;
20036;SDS011;10179;42.640;23.312;2022-12-07T11:05:17;41.83;;;15.07;;
20036;SDS011;10179;42.640;23.312;2022-12-07T11:08:13;25.83;;;11.80;;
20036;SDS011;10179;42.640;23.312;2022-12-07T11:27:16;13.55;;;6.55;;
20036;SDS011;10179;42.640;23.312;2022-12-07T11:37:51;32.30;;;10.95;;
20036;SDS011;10179;42.640;23.312;2022-12-07T11:40:27;27.95;;;11.32;;
20036;SDS011;10179;42.640;23.312;2022-12-07T11:43:00;38.13;;;13.10;;
20036;SDS011;10179;42.640;23.312;2022-12-07T11:45:33;30.63;;;9.98;;
20036;SDS011;10179;42.640;23.312;2022-12-07T11:48:01;35.92;;;14.35;;
20036;SDS011;10179;42.640;23.312;2022-12-07T12:03:41;20.80;;;8.82;;
20036;SDS011;10179;42.640;23.312;2022-12-07T12:06:30;25.75;;;8.70;;
20036;SDS011;10179;42.640;23.312;2022-12-07T12:11:36;27.27;;;8.25;;
20036;SDS011;10179;42.640;23.312;2022-12-07T12:19:45;25.60;;;7.97;;
20036;SDS011;10179;42.640;23.312;2022-12-07T12:25:19;27.02;;;9.40;;
20036;SDS011;10179;42.640;23.312;2022-12-07T12:27:49;33.72;;;9.60;;
20036;SDS011;10179;42.640;23.312;2022-12-07T12:30:30;19.98;;;8.88;;
20036;SDS011;10179;42.640;23.312;2022-12-07T12:35:38;19.63;;;10.20;;
20036;SDS011;10179;42.640;23.312;2022-12-07T12:41:24;26.65;;;9.85;;
20036;SDS011;10179;42.640;23.312;2022-12-07T12:44:00;19.15;;;9.65;;
20036;SDS011;10179;42.640;23.312;2022-12-07T12:51:48;25.33;;;10.70;;
20036;SDS011;10179;42.640;23.312;2022-12-07T12:54:25;30.52;;;11.57;;
20036;SDS011;10179;42.640;23.312;2022-12-07T12:56:55;25.73;;;11.60;;
20036;SDS011;10179;42.640;23.312;2022-12-07T12:59:29;32.15;;;12.32;;
20036;SDS011;10179;42.640;23.312;2022-12-07T13:05:00;25.02;;;11.60;;
20036;SDS011;10179;42.640;23.312;2022-12-07T13:15:33;22.80;;;9.70;;
20036;SDS011;10179;42.640;23.312;2022-12-07T13:18:22;27.17;;;9.70;;
20036;SDS011;10179;42.640;23.312;2022-12-07T13:20:57;23.98;;;10.25;;
20036;SDS011;10179;42.640;23.312;2022-12-07T13:28:35;23.63;;;9.98;;
20036;SDS011;10179;42.640;23.312;2022-12-07T13:31:30;21.08;;;10.30;;
20036;SDS011;10179;42.640;23.312;2022-12-07T13:33:58;22.13;;;10.10;;
20036;SDS011;10179;42.640;23.312;2022-12-07T13:36:27;31.75;;;9.63;;
20036;SDS011;10179;42.640;23.312;2022-12-07T13:39:00;31.45;;;9.32;;
20036;SDS011;10179;42.640;23.312;2022-12-07T13:41:54;24.80;;;8.27;;
20036;SDS011;10179;42.640;23.312;2022-12-07T13:44:22;22.90;;;8.07;;
20036;SDS011;10179;42.640;23.312;2022-12-07T13:49:22;22.13;;;8.57;;
20036;SDS011;10179;42.640;23.312;2022-12-07T13:51:53;22.17;;;8.70;;
20036;SDS011;10179;42.640;23.312;2022-12-07T13:54:20;24.70;;;10.32;;
20036;SDS011;10179;42.640;23.312;2022-12-07T13:56:47;22.63;;;8.65;;
20036;SDS011;10179;42.640;23.312;2022-12-07T13:59:20;19.80;;;10.10;;
20036;SDS011;10179;42.640;23.312;2022-12-07T14:01:49;23.30;;;9.23;;
20036;SDS011;10179;42.640;23.312;2022-12-07T14:06:58;47.63;;;13.80;;
20036;SDS011;10179;42.640;23.312;2022-12-07T14:09:26;62.00;;;25.80;;
20036;SDS011;10179;42.640;23.312;2022-12-07T14:11:52;66.82;;;31.08;;
20036;SDS011;10179;42.640;23.312;2022-12-07T14:14:20;51.90;;;21.90;;
20036;SDS011;10179;42.640;23.312;2022-12-07T14:22:08;30.65;;;12.30;;
20036;SDS011;10179;42.640;23.312;2022-12-07T14:24:43;37.95;;;13.85;;
20036;SDS011;10179;42.640;23.312;2022-12-07T14:27:21;39.95;;;15.18;;
20036;SDS011;10179;42.640;23.312;2022-12-07T14:29:50;83.80;;;32.97;;
20036;SDS011;10179;42.640;23.312;2022-12-07T14:32:26;42.88;;;16.92;;
20036;SDS011;10179;42.640;23.312;2022-12-07T14:35:10;51.33;;;21.25;;
20036;SDS011;10179;42.640;23.312;2022-12-07T14:37:38;74.50;;;31.08;;
20036;SDS011;10179;42.640;23.312;2022-12-07T14:40:05;33.97;;;14.00;;
20036;SDS011;10179;42.640;23.312;2022-12-07T14:42:31;34.97;;;15.10;;
20036;SDS011;10179;42.640;23.312;2022-12-07T14:44:59;35.65;;;14.35;;
20036;SDS011;10179;42.640;23.312;2022-12-07T14:47:25;31.23;;;13.38;;
20036;SDS011;10179;42.640;23.312;2022-12-07T14:49:51;38.30;;;15.63;;
20036;SDS011;10179;42.640;23.312;2022-12-07T14:52:19;46.53;;;15.27;;
20036;SDS011;10179;42.640;23.312;2022-12-07T14:54:48;36.92;;;15.43;;
20036;SDS011;10179;42.640;23.312;2022-12-07T14:57:13;38.53;;;15.65;;
20036;SDS011;10179;42.640;23.312;2022-12-07T14:59:39;41.47;;;17.33;;
20036;SDS011;10179;42.640;23.312;2022-12-07T15:02:05;39.38;;;16.40;;
20036;SDS011;10179;42.640;23.312;2022-12-07T15:04:31;37.88;;;14.38;;
20036;SDS011;10179;42.640;23.312;2022-12-07T15:06:57;32.42;;;14.73;;
20036;SDS011;10179;42.640;23.312;2022-12-07T15:09:24;36.38;;;15.60;;
20036;SDS011;10179;42.640;23.312;2022-12-07T15:11:50;39.53;;;19.02;;
20036;SDS011;10179;42.640;23.312;2022-12-07T15:14:15;49.78;;;22.13;;
20036;SDS011;10179;42.640;23.312;2022-12-07T15:16:41;59.75;;;24.08;;
20036;SDS011;10179;42.640;23.312;2022-12-07T15:19:10;75.38;;;32.85;;
20036;SDS011;10179;42.640;23.312;2022-12-07T15:21:39;71.07;;;33.17;;
20036;SDS011;10179;42.640;23.312;2022-12-07T15:24:05;67.43;;;31.80;;
20036;SDS011;10179;42.640;23.312;2022-12-07T15:26:30;93.50;;;36.20;;
20036;SDS011;10179;42.640;23.312;2022-12-07T15:28:56;60.17;;;28.55;;
20036;SDS011;10179;42.640;23.312;2022-12-07T15:31:22;68.50;;;30.45;;
20036;SDS011;10179;42.640;23.312;2022-12-07T15:33:47;60.83;;;23.17;;
20036;SDS011;10179;42.640;23.312;2022-12-07T15:36:19;52.63;;;22.02;;
20036;SDS011;10179;42.640;23.312;2022-12-07T15:38:47;52.00;;;22.13;;
20036;SDS011;10179;42.640;23.312;2022-12-07T15:41:13;45.72;;;20.92;;
20036;SDS011;10179;42.640;23.312;2022-12-07T15:43:38;41.97;;;19.17;;
20036;SDS011;10179;42.640;23.312;2022-12-07T15:46:23;35.08;;;14.98;;
20036;SDS011;10179;42.640;23.312;2022-12-07T15:48:48;35.00;;;15.98;;
20036;SDS011;10179;42.640;23.312;2022-12-07T15:51:14;34.85;;;15.93;;
20036;SDS011;10179;42.640;23.312;2022-12-07T15:53:39;42.47;;;17.42;;
20036;SDS011;10179;42.640;23.312;2022-12-07T15:56:05;44.25;;;18.75;;
20036;SDS011;10179;42.640;23.312;2022-12-07T15:58:32;53.05;;;21.77;;
20036;SDS011;10179;42.640;23.312;2022-12-07T16:00:57;45.20;;;20.30;;
20036;SDS011;10179;42.640;23.312;2022-12-07T16:03:23;39.65;;;17.58;;
20036;SDS011;10179;42.640;23.312;2022-12-07T16:05:51;50.22;;;23.48;;
20036;SDS011;10179;42.640;23.312;2022-12-07T16:08:18;57.95;;;27.42;;
20036;SDS011;10179;42.640;23.312;2022-12-07T16:10:44;49.67;;;22.45;;
20036;SDS011;10179;42.640;23.312;2022-12-07T16:13:10;40.25;;;19.90;;
20036;SDS011;10179;42.640;23.312;2022-12-07T16:15:39;36.58;;;14.15;;
20036;SDS011;10179;42.640;23.312;2022-12-07T16:18:05;31.58;;;13.70;;
20036;SDS011;10179;42.640;23.312;2022-12-07T16:20:30;79.85;;;39.15;;
20036;SDS011;10179;42.640;23.312;2022-12-07T16:22:56;51.83;;;24.08;;
20036;SDS011;10179;42.640;23.312;2022-12-07T16:25:21;41.88;;;19.45;;
20036;SDS011;10179;42.640;23.312;2022-12-07T16:27:48;37.03;;;17.58;;
20036;SDS011;10179;42.640;23.312;2022-12-07T16:30:14;63.83;;;23.92;;
20036;SDS011;10179;42.640;23.312;2022-12-07T16:32:42;55.40;;;24.08;;
20036;SDS011;10179;42.640;23.312;2022-12-07T16:35:08;42.78;;;17.38;;
20036;SDS011;10179;42.640;23.312;2022-12-07T16:37:34;38.00;;;17.90;;
20036;SDS011;10179;42.640;23.312;2022-12-07T16:39:59;42.80;;;16.50;;
20036;SDS011;10179;42.640;23.312;2022-12-07T16:42:25;38.97;;;17.67;;